PGRO/ROP METAR and TAF weather

Enter ICAO airport designator
Station Type Date Time Source
PGRO METAR 2019/10/15 08:50 UTC NOAA

PGRO 150850Z 08009KT 7SM SCT018 28/23 A2983


Station Type Date Time Source
PGRO Decoded METAR 2019/10/15 08:50 UTC NOAA

Rota Island, N. Mariana Is, Rota International Airport, GU, United States (PGRO) 14-11N 145-15E
Oct 15, 2019 - 04:50 AM EDT / 2019.10.15 0850 UTC
Wind: from the E (080 degrees) at 10 MPH (9 KT):0
Visibility: 7 mile(s):0
Sky conditions: partly cloudy
Temperature: 82 F (28 C)
Dew Point: 73 F (23 C)
Relative Humidity: 74%
Pressure (altimeter): 29.83 in. Hg (1010 hPa)
ob: PGRO 150850Z 08009KT 7SM SCT018 28/23 A2983
cycle: 9

Station Type Date Time Source
PGRO TAF 2019/10/15 06:36 UTC NOAA

TAF PGRO 150533Z 1506/1606 08010KT P6SM VCSH SCT015 SCT060

Example: see airport list